Time;durP1;ratioP1;P1;durP2;ratioP2;P2;SDS_P1;SDS_P2;PMS_P1;PMS_P2;Temp;Humidity;BMP_temperature;BMP_pressure;BME280_temperature;BME280_humidity;BME280_pressure;Samples;Min_cycle;Max_cycle;Signal;HPM_P1;HPM_P2
2022/07/23 00:01:29;;;;;;;0.40;0.20;;;22.10;56.60;;;;;;5111795;28;20391;-72
2022/07/23 00:03:55;;;;;;;0.60;0.10;;;22.10;56.60;;;;;;5112875;28;20043;-72
2022/07/23 00:06:21;;;;;;;1.60;0.20;;;22.10;56.70;;;;;;5112981;28;20035;-72
2022/07/23 00:08:47;;;;;;;0.40;0.10;;;22.10;56.60;;;;;;5111594;28;20123;-72
2022/07/23 00:11:13;;;;;;;1.58;0.10;;;22.10;56.60;;;;;;5111466;28;20119;-72
2022/07/23 00:13:39;;;;;;;0.73;0.15;;;22.10;56.70;;;;;;5111767;28;20035;-72
2022/07/23 00:16:04;;;;;;;0.52;0.10;;;22.10;56.70;;;;;;5111773;28;20043;-72
2022/07/23 00:18:34;;;;;;;0.60;0.10;;;22.10;56.70;;;;;;5111744;28;20375;-72
2022/07/23 00:21:00;;;;;;;0.77;0.20;;;22.10;56.70;;;;;;5111513;28;20051;-72
2022/07/23 00:23:27;;;;;;;0.82;0.10;;;22.10;56.70;;;;;;5111511;28;20114;-72
2022/07/23 00:25:52;;;;;;;0.65;0.20;;;22.10;56.70;;;;;;5111629;28;20071;-71
2022/07/23 00:28:18;;;;;;;1.08;0.17;;;22.10;56.70;;;;;;5112666;28;20063;-72
2022/07/23 00:30:44;;;;;;;1.38;0.20;;;22.10;56.70;;;;;;5111536;28;20032;-72
2022/07/23 00:33:10;;;;;;;0.50;0.10;;;22.10;56.70;;;;;;5111330;28;20441;-72
2022/07/23 00:35:40;;;;;;;0.50;0.10;;;22.10;56.70;;;;;;5111086;28;20042;-72
2022/07/23 00:38:07;;;;;;;0.40;0.15;;;22.00;56.70;;;;;;5111386;28;20305;-72
2022/07/23 00:40:34;;;;;;;0.75;0.10;;;22.10;56.70;;;;;;5111159;28;20043;-72
2022/07/23 00:42:59;;;;;;;0.85;0.20;;;22.00;56.70;;;;;;5111504;28;20046;-72
2022/07/23 00:45:25;;;;;;;0.30;0.10;;;22.00;56.70;;;;;;5111127;28;20483;-72
2022/07/23 00:47:52;;;;;;;0.50;0.10;;;22.00;56.70;;;;;;5111185;28;20119;-72
2022/07/23 00:50:17;;;;;;;0.30;0.10;;;22.10;56.70;;;;;;5111225;28;20040;-72
2022/07/23 00:52:44;;;;;;;0.17;0.10;;;22.00;56.70;;;;;;5110928;28;20092;-72
2022/07/23 00:55:11;;;;;;;0.32;0.10;;;22.00;56.70;;;;;;5110975;28;20047;-72
2022/07/23 00:57:37;;;;;;;0.40;0.10;;;22.00;56.70;;;;;;5111214;28;20032;-72
2022/07/23 01:00:06;;;;;;;0.20;0.03;;;22.00;56.70;;;;;;5112285;28;20031;-72
2022/07/23 01:02:32;;;;;;;0.82;0.15;;;22.00;56.70;;;;;;5111261;28;20043;-72
2022/07/23 01:05:04;;;;;;;1.15;0.10;;;22.00;56.70;;;;;;5110778;28;20055;-72
2022/07/23 01:07:30;;;;;;;0.25;0.10;;;21.90;56.70;;;;;;5110944;28;20490;-72
2022/07/23 01:09:55;;;;;;;0.43;0.10;;;21.90;56.60;;;;;;5112198;28;20047;-72
2022/07/23 01:12:21;;;;;;;0.50;0.10;;;22.00;56.70;;;;;;5110744;28;20048;-72
2022/07/23 01:14:56;;;;;;;1.42;0.20;;;22.00;56.70;;;;;;5110884;28;20039;-72
2022/07/23 01:17:22;;;;;;;0.55;0.10;;;21.90;56.70;;;;;;5111930;28;20071;-72
2022/07/23 01:19:48;;;;;;;0.28;0.10;;;22.00;56.70;;;;;;5110742;28;20066;-72
2022/07/23 01:22:14;;;;;;;0.50;0.20;;;21.90;56.60;;;;;;5110724;28;20050;-72
2022/07/23 01:24:40;;;;;;;3.85;0.32;;;21.90;56.60;;;;;;5111053;28;20031;-72
2022/07/23 01:27:05;;;;;;;0.40;0.10;;;21.90;56.60;;;;;;5110829;28;20403;-71
2022/07/23 01:29:31;;;;;;;1.52;0.13;;;21.90;56.60;;;;;;5110659;28;20043;-72
2022/07/23 01:31:57;;;;;;;0.50;0.10;;;21.90;56.60;;;;;;5112576;28;20043;-72
2022/07/23 01:34:22;;;;;;;0.28;0.10;;;21.90;56.60;;;;;;5111398;28;20036;-71
2022/07/23 01:36:48;;;;;;;1.05;0.40;;;21.90;56.60;;;;;;5111225;28;20118;-72
2022/07/23 01:39:13;;;;;;;0.25;0.17;;;21.90;56.60;;;;;;5112094;28;20103;-72
2022/07/23 01:41:40;;;;;;;0.40;0.10;;;21.90;56.60;;;;;;5111961;28;20036;-72
2022/07/23 01:44:06;;;;;;;0.25;0.10;;;21.80;56.50;;;;;;5110649;28;20176;-71
2022/07/23 01:46:31;;;;;;;0.43;0.10;;;21.90;56.60;;;;;;5093622;28;20123;-72
2022/07/23 01:48:57;;;;;;;0.63;0.10;;;21.80;56.50;;;;;;5110500;28;20048;-71
2022/07/23 01:51:23;;;;;;;0.95;0.10;;;21.80;56.50;;;;;;5111416;28;20032;-71
2022/07/23 01:53:48;;;;;;;0.90;0.20;;;21.80;56.50;;;;;;5110766;28;20047;-72
2022/07/23 01:56:15;;;;;;;0.40;0.10;;;21.80;56.50;;;;;;5110485;28;20044;-72
2022/07/23 01:58:43;;;;;;;0.50;0.10;;;21.80;56.50;;;;;;5111785;28;20043;-72
2022/07/23 02:01:09;;;;;;;0.30;0.10;;;21.80;56.50;;;;;;5114251;28;20505;-72
2022/07/23 02:03:35;;;;;;;0.30;0.10;;;21.80;56.50;;;;;;5115229;28;20039;-72
2022/07/23 02:06:00;;;;;;;0.17;0.03;;;21.80;56.50;;;;;;5114121;28;20090;-72
2022/07/23 02:08:26;;;;;;;0.10;0.10;;;21.80;56.50;;;;;;5114231;28;20126;-72
2022/07/23 02:10:52;;;;;;;0.28;0.10;;;21.80;56.50;;;;;;5115455;28;20118;-72
2022/07/23 02:13:18;;;;;;;1.02;0.10;;;21.80;56.40;;;;;;5113821;28;20039;-72
2022/07/23 02:15:44;;;;;;;0.63;0.20;;;21.80;56.40;;;;;;5113984;28;20082;-72
2022/07/23 02:18:10;;;;;;;0.20;0.03;;;21.70;56.40;;;;;;5113872;28;20043;-72
2022/07/23 02:20:38;;;;;;;0.15;0.10;;;21.80;56.40;;;;;;5113742;28;20039;-72
2022/07/23 02:23:04;;;;;;;0.60;0.10;;;21.70;56.30;;;;;;5113707;28;20055;-72
2022/07/23 02:25:30;;;;;;;0.25;0.10;;;21.70;56.30;;;;;;5113803;28;20039;-72
2022/07/23 02:27:55;;;;;;;0.30;0.10;;;21.70;56.30;;;;;;5114978;28;20092;-72
2022/07/23 02:30:21;;;;;;;0.20;0.10;;;21.70;56.20;;;;;;5113597;28;20036;-71
2022/07/23 02:32:46;;;;;;;0.10;0.08;;;21.70;56.20;;;;;;5113480;28;20071;-72
2022/07/23 02:35:12;;;;;;;0.30;0.10;;;21.70;56.20;;;;;;5114688;28;20046;-72
2022/07/23 02:37:38;;;;;;;1.95;0.10;;;21.70;56.20;;;;;;5114967;28;20084;-71
2022/07/23 02:40:04;;;;;;;0.08;0.00;;;21.70;56.20;;;;;;5113697;28;20043;-71
2022/07/23 02:42:30;;;;;;;0.38;0.10;;;21.70;56.20;;;;;;5113641;28;20040;-72
2022/07/23 02:44:55;;;;;;;0.40;0.10;;;21.70;56.10;;;;;;5114950;28;20054;-72
2022/07/23 02:47:21;;;;;;;0.10;0.10;;;21.70;56.10;;;;;;5113224;28;20055;-72
2022/07/23 02:49:46;;;;;;;0.30;0.10;;;21.70;56.10;;;;;;5114374;28;20035;-73
2022/07/23 02:52:12;;;;;;;0.10;0.10;;;21.70;56.10;;;;;;5112848;28;20051;-71
2022/07/23 02:54:38;;;;;;;0.40;0.10;;;21.70;56.10;;;;;;5113744;28;20069;-72
2022/07/23 02:57:04;;;;;;;0.65;0.10;;;21.70;56.10;;;;;;5113069;28;20487;-72
2022/07/23 02:59:33;;;;;;;0.30;0.00;;;21.70;56.10;;;;;;5112977;28;20417;-72
2022/07/23 03:01:58;;;;;;;0.28;0.10;;;21.70;56.10;;;;;;5113226;28;20031;-72
2022/07/23 03:04:24;;;;;;;0.15;0.10;;;21.70;56.00;;;;;;5112906;28;20044;-72
2022/07/23 03:06:50;;;;;;;1.30;0.10;;;21.60;56.00;;;;;;5112850;28;20043;-72
2022/07/23 03:09:15;;;;;;;2.35;0.15;;;21.60;55.90;;;;;;5112813;28;20043;-72
2022/07/23 03:11:41;;;;;;;0.43;0.00;;;21.60;55.90;;;;;;5112936;28;20047;-72
2022/07/23 03:14:07;;;;;;;0.13;0.00;;;21.60;55.90;;;;;;5112986;28;20429;-72
2022/07/23 03:16:33;;;;;;;0.10;0.00;;;21.60;55.90;;;;;;5112927;28;20039;-72
2022/07/23 03:18:58;;;;;;;0.10;0.10;;;21.60;55.90;;;;;;5112902;28;20379;-72
2022/07/23 03:21:24;;;;;;;0.28;0.00;;;21.60;55.90;;;;;;5112433;28;20084;-71
2022/07/23 03:23:49;;;;;;;0.30;0.10;;;21.60;55.80;;;;;;5112814;28;20035;-71
2022/07/23 03:26:15;;;;;;;1.60;0.10;;;21.60;55.80;;;;;;5112551;28;20439;-72
2022/07/23 03:28:41;;;;;;;0.40;0.10;;;21.60;55.80;;;;;;5114049;28;20040;-72
2022/07/23 03:31:06;;;;;;;0.20;0.00;;;21.60;55.80;;;;;;5112877;28;20043;-72
2022/07/23 03:33:32;;;;;;;0.20;0.10;;;21.50;55.80;;;;;;5112187;28;20047;-72
2022/07/23 03:35:57;;;;;;;0.30;0.03;;;21.60;55.80;;;;;;5113444;28;20130;-71
2022/07/23 03:38:23;;;;;;;0.75;0.10;;;21.50;55.80;;;;;;5113570;28;20126;-72
2022/07/23 03:40:49;;;;;;;0.65;0.10;;;21.50;55.80;;;;;;5112135;28;20203;-72
2022/07/23 03:43:14;;;;;;;0.52;0.10;;;21.50;55.70;;;;;;5112153;28;20050;-71
2022/07/23 03:45:40;;;;;;;0.20;0.05;;;21.50;55.70;;;;;;5112339;28;20039;-72
2022/07/23 03:48:05;;;;;;;0.30;0.10;;;21.50;55.70;;;;;;5112416;28;20516;-71
2022/07/23 03:50:31;;;;;;;0.10;0.05;;;21.50;55.60;;;;;;5112200;28;20046;-72
2022/07/23 03:52:57;;;;;;;0.32;0.10;;;21.50;55.70;;;;;;5111764;28;20120;-72
2022/07/23 03:55:22;;;;;;;0.20;0.00;;;21.50;55.60;;;;;;5113188;28;20052;-72
2022/07/23 03:57:48;;;;;;;0.10;0.05;;;21.50;55.60;;;;;;5111809;28;20046;-71
2022/07/23 04:00:14;;;;;;;0.10;0.10;;;21.50;55.60;;;;;;5112193;28;20063;-72
2022/07/23 04:02:42;;;;;;;0.40;0.10;;;21.50;55.60;;;;;;5111798;28;20353;-71
2022/07/23 04:05:08;;;;;;;0.20;0.03;;;21.50;55.60;;;;;;5111719;28;20548;-72
2022/07/23 04:07:34;;;;;;;0.50;0.10;;;21.50;55.60;;;;;;5111882;28;20039;-71
2022/07/23 04:09:59;;;;;;;0.65;0.10;;;21.50;55.60;;;;;;5113116;28;20439;-72
2022/07/23 04:12:25;;;;;;;0.10;0.03;;;21.50;55.60;;;;;;5094629;28;20486;-72
2022/07/23 04:14:50;;;;;;;1.05;0.10;;;21.50;55.60;;;;;;5111648;28;20032;-71
2022/07/23 04:17:16;;;;;;;0.30;0.10;;;21.40;55.50;;;;;;5111792;28;20027;-72
2022/07/23 04:19:43;;;;;;;1.48;0.10;;;21.50;55.60;;;;;;5112847;28;20491;-72
2022/07/23 04:22:10;;;;;;;0.28;0.10;;;21.50;55.60;;;;;;5111298;28;20043;-71
2022/07/23 04:24:37;;;;;;;0.10;0.00;;;21.50;55.50;;;;;;5111751;28;20185;-72
2022/07/23 04:27:04;;;;;;;0.10;0.00;;;21.40;55.50;;;;;;5111691;28;20080;-72
2022/07/23 04:29:29;;;;;;;1.02;0.00;;;21.50;55.60;;;;;;5111433;28;20513;-71
2022/07/23 04:31:55;;;;;;;0.20;0.10;;;21.40;55.50;;;;;;5111163;28;20048;-71
2022/07/23 04:34:21;;;;;;;0.20;0.10;;;21.50;55.50;;;;;;5111399;28;20046;-72
2022/07/23 04:36:47;;;;;;;1.05;0.10;;;21.40;55.50;;;;;;5111293;28;20118;-72
2022/07/23 04:39:13;;;;;;;0.10;0.10;;;21.40;55.50;;;;;;5111361;28;20122;-72
2022/07/23 04:41:38;;;;;;;0.80;0.10;;;21.40;55.50;;;;;;5111187;28;20542;-72
2022/07/23 04:44:04;;;;;;;0.10;0.08;;;21.40;55.50;;;;;;5111408;28;20054;-72
2022/07/23 04:46:30;;;;;;;0.20;0.10;;;21.40;55.50;;;;;;5111397;28;20414;-71
2022/07/23 04:48:55;;;;;;;0.65;0.10;;;21.40;55.50;;;;;;5111042;28;20494;-71
2022/07/23 04:51:21;;;;;;;0.20;0.10;;;21.40;55.50;;;;;;5112039;28;20047;-71
2022/07/23 04:53:47;;;;;;;0.22;0.10;;;21.40;55.50;;;;;;5110975;28;20044;-72
2022/07/23 04:56:15;;;;;;;0.68;0.10;;;21.40;55.60;;;;;;5094344;28;20050;-71
2022/07/23 04:58:41;;;;;;;0.93;0.10;;;21.40;55.60;;;;;;5110402;28;20112;-71
2022/07/23 05:01:07;;;;;;;0.20;0.10;;;21.40;55.60;;;;;;5111424;28;20463;-72
2022/07/23 05:03:32;;;;;;;0.40;0.10;;;21.40;55.60;;;;;;5110895;28;20052;-72
2022/07/23 05:05:58;;;;;;;0.32;0.03;;;21.40;55.60;;;;;;5111011;28;20046;-71
2022/07/23 05:08:24;;;;;;;0.10;0.00;;;21.40;55.50;;;;;;5112088;28;20093;-72
2022/07/23 05:10:49;;;;;;;0.30;0.10;;;21.30;55.50;;;;;;5110935;28;20071;-72
2022/07/23 05:13:16;;;;;;;0.43;0.10;;;21.40;55.60;;;;;;5110787;28;20110;-72
2022/07/23 05:15:42;;;;;;;0.20;0.10;;;21.40;55.60;;;;;;5110903;28;20050;-71
2022/07/23 05:18:07;;;;;;;0.30;0.10;;;21.40;55.60;;;;;;5110896;28;20116;-72
2022/07/23 05:20:36;;;;;;;0.73;0.10;;;21.40;55.60;;;;;;5112193;28;20114;-72
2022/07/23 05:23:03;;;;;;;0.63;0.13;;;21.40;55.60;;;;;;5112054;28;20043;-71
2022/07/23 05:25:28;;;;;;;0.10;0.00;;;21.40;55.60;;;;;;5110691;28;20075;-72
2022/07/23 05:27:54;;;;;;;0.28;0.10;;;21.40;55.60;;;;;;5110730;28;20090;-72
2022/07/23 05:30:20;;;;;;;0.17;0.00;;;21.30;55.60;;;;;;5111962;28;20071;-72
2022/07/23 05:32:45;;;;;;;0.40;0.10;;;21.40;55.70;;;;;;5110741;28;20089;-71
2022/07/23 05:35:12;;;;;;;0.85;0.10;;;21.40;55.70;;;;;;5113189;28;20048;-72
2022/07/23 05:37:38;;;;;;;0.20;0.10;;;21.40;55.70;;;;;;5114909;28;20039;-72
2022/07/23 05:40:07;;;;;;;0.10;0.08;;;21.40;55.70;;;;;;5114755;28;20035;-71
2022/07/23 05:42:34;;;;;;;0.20;0.00;;;21.30;55.70;;;;;;5114869;28;20063;-71
2022/07/23 05:45:00;;;;;;;0.22;0.00;;;21.30;55.70;;;;;;5114559;28;20047;-71
2022/07/23 05:47:25;;;;;;;0.40;0.20;;;21.40;55.70;;;;;;5115802;28;20039;-71
2022/07/23 05:49:51;;;;;;;0.40;0.10;;;21.40;55.70;;;;;;5114319;28;20516;-72
2022/07/23 05:52:17;;;;;;;0.68;0.05;;;21.30;55.70;;;;;;5115390;28;20044;-72
2022/07/23 05:54:43;;;;;;;0.35;0.10;;;21.40;55.80;;;;;;5115517;28;20475;-72
2022/07/23 05:57:08;;;;;;;0.50;0.10;;;21.30;55.70;;;;;;5114316;28;20173;-72
2022/07/23 05:59:34;;;;;;;0.40;0.10;;;21.40;55.80;;;;;;5115419;28;20051;-71
2022/07/23 06:01:59;;;;;;;0.73;0.10;;;21.40;55.80;;;;;;5114253;28;20543;-72
2022/07/23 06:04:25;;;;;;;0.38;0.10;;;21.40;55.70;;;;;;5114393;28;20039;-72
2022/07/23 06:06:51;;;;;;;0.30;0.10;;;21.30;55.70;;;;;;5115351;28;20506;-71
2022/07/23 06:09:16;;;;;;;0.57;0.10;;;21.40;55.70;;;;;;5115376;28;20117;-71
2022/07/23 06:11:42;;;;;;;0.50;0.10;;;21.40;55.70;;;;;;5115093;28;20048;-72
2022/07/23 06:14:10;;;;;;;0.10;0.10;;;21.40;55.70;;;;;;5113938;28;20044;-71
2022/07/23 06:16:36;;;;;;;0.38;0.10;;;21.40;55.70;;;;;;5114280;28;20088;-71
2022/07/23 06:19:02;;;;;;;0.43;0.10;;;21.30;55.70;;;;;;5113932;28;20380;-71
2022/07/23 06:21:27;;;;;;;0.47;0.10;;;21.40;55.70;;;;;;5114135;28;20039;-72
2022/07/23 06:23:53;;;;;;;0.30;0.10;;;21.30;55.70;;;;;;5114141;28;20031;-71
2022/07/23 06:26:18;;;;;;;0.68;0.10;;;21.30;55.70;;;;;;5113678;28;20390;-72
2022/07/23 06:28:44;;;;;;;0.20;0.10;;;21.30;55.70;;;;;;5115201;28;20169;-72
2022/07/23 06:31:10;;;;;;;0.95;0.10;;;21.30;55.70;;;;;;5113550;28;20040;-71
2022/07/23 06:33:35;;;;;;;0.50;0.03;;;21.30;55.70;;;;;;5113678;28;20113;-71
2022/07/23 06:36:01;;;;;;;0.10;0.10;;;21.30;55.60;;;;;;5113779;28;20032;-71
2022/07/23 06:38:26;;;;;;;0.28;0.10;;;21.40;55.70;;;;;;5114805;28;20551;-72
2022/07/23 06:40:52;;;;;;;0.82;0.10;;;21.30;55.60;;;;;;5113326;28;20044;-72
2022/07/23 06:43:17;;;;;;;0.40;0.10;;;21.30;55.60;;;;;;5113950;28;20035;-71
2022/07/23 06:45:43;;;;;;;0.55;0.10;;;21.30;55.60;;;;;;5113025;28;20040;-71
2022/07/23 06:48:09;;;;;;;0.57;0.10;;;21.30;55.60;;;;;;5114529;28;20084;-71
2022/07/23 06:50:34;;;;;;;0.40;0.10;;;21.30;55.60;;;;;;5113264;28;20089;-71
2022/07/23 06:53:00;;;;;;;0.57;0.10;;;21.30;55.60;;;;;;5112513;28;20043;-71
2022/07/23 06:55:29;;;;;;;0.95;0.05;;;21.30;55.60;;;;;;5114428;28;20061;-71
2022/07/23 06:57:54;;;;;;;1.02;0.10;;;21.30;55.50;;;;;;5113287;28;20047;-71
2022/07/23 07:00:20;;;;;;;0.20;0.10;;;21.30;55.60;;;;;;5113092;28;20399;-71
2022/07/23 07:02:46;;;;;;;0.60;0.10;;;21.40;55.60;;;;;;5112950;28;20084;-71
2022/07/23 07:05:11;;;;;;;0.55;0.03;;;21.30;55.50;;;;;;5113376;28;20081;-67
2022/07/23 07:07:37;;;;;;;2.88;0.20;;;21.30;55.50;;;;;;5111075;28;20392;-68
2022/07/23 07:10:04;;;;;;;2.17;0.10;;;21.30;55.60;;;;;;5111986;28;20028;-68
2022/07/23 07:12:29;;;;;;;1.85;0.10;;;21.40;55.80;;;;;;5111319;28;20044;-67
2022/07/23 07:14:58;;;;;;;1.70;0.28;;;21.40;55.70;;;;;;5112174;28;20039;-72
2022/07/23 07:17:24;;;;;;;1.50;0.10;;;21.40;55.90;;;;;;5112749;28;20073;-69
2022/07/23 07:19:50;;;;;;;3.45;0.20;;;21.50;56.00;;;;;;5113163;28;20067;-72
2022/07/23 07:22:15;;;;;;;0.45;0.10;;;21.50;56.00;;;;;;5112161;28;20403;-71
2022/07/23 07:24:41;;;;;;;1.55;0.30;;;21.60;56.10;;;;;;5112665;28;20043;-72
2022/07/23 07:27:06;;;;;;;1.15;0.10;;;21.60;56.10;;;;;;5111411;28;20292;-71
2022/07/23 07:29:32;;;;;;;0.30;0.10;;;21.70;56.10;;;;;;5111104;28;20613;-71
2022/07/23 07:32:00;;;;;;;1.60;0.10;;;21.70;56.10;;;;;;5110479;28;20044;-70
2022/07/23 07:34:29;;;;;;;1.95;0.10;;;21.70;56.10;;;;;;5111734;28;20035;-72
2022/07/23 07:36:55;;;;;;;0.20;0.10;;;21.70;56.00;;;;;;5112273;28;20036;-71
2022/07/23 07:39:20;;;;;;;0.40;0.10;;;21.80;56.10;;;;;;5111524;28;20043;-75
2022/07/23 07:41:46;;;;;;;0.40;0.10;;;21.80;56.00;;;;;;5113100;28;20156;-72
2022/07/23 07:44:12;;;;;;;1.10;0.20;;;21.80;56.10;;;;;;5111663;28;20043;-70
2022/07/23 07:46:37;;;;;;;0.50;0.20;;;21.80;56.00;;;;;;5109968;28;20180;-71
2022/07/23 07:49:03;;;;;;;1.23;0.15;;;21.90;56.10;;;;;;5110552;28;20453;-70
2022/07/23 07:51:28;;;;;;;0.93;0.10;;;21.90;56.00;;;;;;5109944;28;20043;-73
2022/07/23 07:53:54;;;;;;;0.60;0.10;;;21.90;55.90;;;;;;5112383;28;20073;-72
2022/07/23 07:56:20;;;;;;;1.08;0.10;;;21.90;55.80;;;;;;5111314;28;20050;-71
2022/07/23 07:58:48;;;;;;;1.63;0.10;;;21.90;55.70;;;;;;5111303;28;20042;-71
2022/07/23 08:01:14;;;;;;;1.65;0.10;;;21.90;55.60;;;;;;5111850;28;20095;-71
2022/07/23 08:03:39;;;;;;;1.83;0.10;;;21.90;55.60;;;;;;5111996;28;20039;-72
2022/07/23 08:06:05;;;;;;;2.05;0.10;;;21.90;55.60;;;;;;5111541;28;20577;-72
2022/07/23 08:08:31;;;;;;;1.42;0.05;;;21.90;55.50;;;;;;5111636;28;20042;-71
2022/07/23 08:10:56;;;;;;;0.20;0.08;;;21.90;55.50;;;;;;5111883;28;20424;-72
2022/07/23 08:13:22;;;;;;;1.40;0.10;;;21.90;55.40;;;;;;5108462;28;20044;-71
2022/07/23 08:15:48;;;;;;;0.75;0.10;;;21.90;55.40;;;;;;5109534;28;20035;-72
2022/07/23 08:18:14;;;;;;;2.72;0.17;;;21.90;55.30;;;;;;5095833;28;20040;-72
2022/07/23 08:20:40;;;;;;;1.45;0.10;;;21.90;55.20;;;;;;5096364;28;20062;-72
2022/07/23 08:23:08;;;;;;;1.95;0.10;;;21.90;55.20;;;;;;5096009;28;20071;-68
2022/07/23 08:25:38;;;;;;;0.20;0.10;;;21.90;55.20;;;;;;5096332;28;20036;-71
2022/07/23 08:28:07;;;;;;;3.60;0.20;;;21.90;55.10;;;;;;5114610;27;20048;-71
2022/07/23 08:30:34;;;;;;;0.17;0.08;;;21.90;55.10;;;;;;5096877;27;20079;-71
2022/07/23 08:33:03;;;;;;;1.42;0.30;;;21.90;55.00;;;;;;5094612;28;20040;-71
2022/07/23 08:38:14;;;;;;;0.95;0.10;;;21.90;54.90;;;;;;5104095;27;20957;-71
2022/07/23 08:40:42;;;;;;;0.20;0.10;;;21.90;55.60;;;;;;5103490;28;20077;-70
2022/07/23 08:43:10;;;;;;;5.32;0.20;;;21.90;54.70;;;;;;5103242;28;20051;-71
2022/07/23 08:45:39;;;;;;;1.35;0.10;;;21.90;54.70;;;;;;5102642;28;20040;-70
2022/07/23 08:48:08;;;;;;;0.52;0.10;;;21.90;54.70;;;;;;5106610;28;20040;-71
2022/07/23 08:50:36;;;;;;;1.58;0.10;;;21.90;54.40;;;;;;5108186;28;20480;-71
2022/07/23 08:53:02;;;;;;;0.85;0.10;;;22.00;54.40;;;;;;5108125;28;20036;-70
2022/07/23 08:55:28;;;;;;;0.40;0.10;;;21.90;54.20;;;;;;5107965;28;20075;-71
2022/07/23 08:57:53;;;;;;;1.05;0.10;;;22.00;54.20;;;;;;5107773;28;20078;-71
2022/07/23 09:00:21;;;;;;;1.10;0.10;;;22.00;54.10;;;;;;5106854;28;20043;-70
2022/07/23 09:02:47;;;;;;;4.03;0.10;;;22.00;54.10;;;;;;5112698;28;20065;-72
2022/07/23 09:05:14;;;;;;;3.95;0.38;;;22.00;54.10;;;;;;5108998;28;20032;-75
2022/07/23 09:08:16;;;;;;;1.67;0.10;;;22.00;54.20;;;;;;5105260;28;20044;-76
2022/07/23 09:10:59;;;;;;;9.20;0.20;;;22.00;54.10;;;;;;5105740;28;20047;-74
2022/07/23 09:19:02;;;;;;;9.48;0.50;;;22.10;54.10;;;;;;5108687;27;20355;-75
2022/07/23 09:24:09;;;;;;;7.05;0.43;;;22.30;54.00;;;;;;5130129;27;20411;-74
2022/07/23 09:29:20;;;;;;;1.58;0.43;;;22.30;53.90;;;;;;5088555;28;20364;-75
2022/07/23 09:34:30;;;;;;;3.40;0.52;;;22.20;53.80;;;;;;5129735;27;20357;-75
2022/07/23 09:37:17;;;;;;;0.60;0.10;;;22.20;53.80;;;;;;5128476;27;20119;-75
2022/07/23 09:39:48;;;;;;;2.97;0.55;;;22.20;53.80;;;;;;5129171;27;20047;-75
2022/07/23 09:42:19;;;;;;;1.85;0.10;;;22.20;53.90;;;;;;5128913;27;20047;-75
2022/07/23 09:44:48;;;;;;;2.63;0.20;;;22.10;53.80;;;;;;5128986;28;20417;-75
2022/07/23 09:47:13;;;;;;;1.98;0.30;;;22.10;53.80;;;;;;5128741;27;20127;-75
2022/07/23 09:49:39;;;;;;;1.83;0.30;;;22.10;53.80;;;;;;5130042;27;20118;-75
2022/07/23 09:52:05;;;;;;;2.08;0.13;;;22.10;53.80;;;;;;5128732;27;20039;-75
2022/07/23 09:57:15;;;;;;;4.03;0.30;;;22.10;53.70;;;;;;5129613;27;20362;-77
2022/07/23 09:59:41;;;;;;;0.65;0.15;;;22.20;53.80;;;;;;5129276;28;20047;-77
2022/07/23 10:02:12;;;;;;;0.70;0.10;;;22.20;53.70;;;;;;5127067;28;20048;-77
2022/07/23 10:04:41;;;;;;;3.53;0.20;;;22.20;53.60;;;;;;5118165;28;20127;-77
2022/07/23 10:07:10;;;;;;;0.43;0.10;;;22.20;53.60;;;;;;5117005;28;20047;-78
2022/07/23 10:09:37;;;;;;;1.20;0.25;;;22.20;53.60;;;;;;5118173;28;20053;-77
2022/07/23 10:14:58;;;;;;;1.98;0.10;;;22.20;53.60;;;;;;5115784;28;20104;-78
2022/07/23 10:17:23;;;;;;;0.95;0.10;;;22.20;53.60;;;;;;5109227;28;20039;-78
2022/07/23 10:19:49;;;;;;;0.60;0.15;;;22.20;53.50;;;;;;5112438;28;20042;-78
2022/07/23 10:22:22;;;;;;;0.88;0.17;;;22.20;53.50;;;;;;5118602;28;20440;-79
2022/07/23 10:30:42;;;;;;;1.35;0.10;;;22.20;53.50;;;;;;5129810;27;20444;-75
2022/07/23 10:33:47;;;;;;;0.63;0.10;;;22.20;53.30;;;;;;5129245;28;20047;-74
2022/07/23 10:36:23;;;;;;;0.55;0.10;;;22.20;53.30;;;;;;5126157;28;20517;-75
2022/07/23 10:44:22;;;;;;;1.17;0.10;;;22.20;53.30;;;;;;5129167;27;20357;-76
2022/07/23 10:49:50;;;;;;;0.22;0.10;;;22.30;53.20;;;;;;5129470;28;20458;-76
2022/07/23 10:52:17;;;;;;;0.20;0.10;;;22.20;53.20;;;;;;5127906;28;20070;-77
2022/07/23 10:57:49;;;;;;;0.70;0.10;;;22.20;53.20;;;;;;5128740;27;20448;-77
2022/07/23 11:00:20;;;;;;;0.88;0.20;;;22.20;53.00;;;;;;5127634;28;20043;-77
2022/07/23 11:02:48;;;;;;;0.80;0.57;;;22.20;53.10;;;;;;5145083;27;20035;-77
2022/07/23 11:05:16;;;;;;;0.73;0.10;;;22.20;53.00;;;;;;5127359;28;20039;-77
2022/07/23 11:13:31;;;;;;;1.15;0.10;;;22.20;53.10;;;;;;5130421;27;20354;-76
2022/07/23 11:24:07;;;;;;;0.40;0.10;;;22.20;53.00;;;;;;5153275;27;1153413;-77
2022/07/23 11:32:32;;;;;;;0.17;0.10;;;22.30;53.10;;;;;;5130268;27;20419;-77
2022/07/23 11:34:58;;;;;;;0.43;0.10;;;22.20;53.00;;;;;;5145619;27;20439;-77
2022/07/23 11:37:40;;;;;;;1.02;0.10;;;22.20;53.00;;;;;;5128921;28;20122;-76
2022/07/23 11:40:09;;;;;;;0.38;0.10;;;22.20;53.00;;;;;;5129411;27;20039;-76
2022/07/23 11:42:50;;;;;;;0.70;0.10;;;22.20;53.00;;;;;;5146317;27;20101;-76
2022/07/23 11:45:16;;;;;;;0.38;0.10;;;22.20;53.10;;;;;;5129150;28;20089;-76
2022/07/23 11:47:41;;;;;;;0.50;0.10;;;22.20;53.10;;;;;;5128651;28;20398;-77
2022/07/23 11:50:07;;;;;;;1.33;0.10;;;22.20;53.10;;;;;;5128878;28;20043;-77
2022/07/23 11:52:34;;;;;;;0.75;0.10;;;22.20;53.10;;;;;;5128790;28;20039;-77
2022/07/23 11:55:02;;;;;;;0.28;0.10;;;22.20;53.10;;;;;;5145859;27;20115;-76
2022/07/23 11:57:31;;;;;;;0.30;0.20;;;22.20;53.10;;;;;;5128518;28;20566;-77
2022/07/23 12:00:17;;;;;;;0.73;0.10;;;22.20;53.20;;;;;;5129875;27;20046;-77
2022/07/23 12:02:45;;;;;;;1.80;0.10;;;22.20;53.10;;;;;;5128392;27;20084;-77
2022/07/23 12:05:16;;;;;;;0.50;0.10;;;22.20;53.30;;;;;;5128577;28;20067;-76
2022/07/23 12:07:44;;;;;;;0.43;0.15;;;22.20;53.20;;;;;;5128568;28;20039;-77
2022/07/23 12:10:15;;;;;;;0.20;0.10;;;22.20;53.20;;;;;;5128549;28;20398;-77
2022/07/23 12:12:43;;;;;;;0.40;0.20;;;22.20;53.20;;;;;;5128444;27;20386;-76
2022/07/23 12:15:11;;;;;;;0.35;0.10;;;22.20;53.20;;;;;;5129562;27;20180;-76
2022/07/23 12:17:38;;;;;;;2.67;0.20;;;22.20;53.20;;;;;;5129813;27;20515;-77
2022/07/23 12:20:07;;;;;;;0.28;0.10;;;22.20;53.30;;;;;;5128298;28;20074;-77
2022/07/23 12:22:37;;;;;;;0.52;0.10;;;22.20;53.20;;;;;;5128124;28;20047;-77
2022/07/23 12:25:07;;;;;;;0.65;0.10;;;22.20;53.30;;;;;;5128047;28;20088;-77
2022/07/23 12:27:33;;;;;;;0.80;0.10;;;22.20;53.30;;;;;;5128170;28;20358;-77
2022/07/23 12:29:58;;;;;;;0.40;0.15;;;22.20;54.10;;;;;;5127861;27;20315;-76
2022/07/23 12:32:28;;;;;;;0.35;0.10;;;22.20;53.30;;;;;;5129021;28;20075;-77
2022/07/23 12:35:09;;;;;;;0.30;0.10;;;22.20;53.30;;;;;;5127901;28;20039;-76
2022/07/23 12:37:37;;;;;;;0.20;0.10;;;22.20;53.30;;;;;;5127806;28;20054;-76
2022/07/23 12:43:05;;;;;;;0.52;0.10;;;22.20;53.30;;;;;;5130066;27;20424;-76
2022/07/23 12:53:48;;;;;;;0.30;0.10;;;22.20;53.40;;;;;;5152422;27;1172932;-76
2022/07/23 12:56:18;;;;;;;0.40;0.10;;;22.30;53.40;;;;;;5153433;27;20459;-76
2022/07/23 13:04:13;;;;;;;0.68;0.20;;;22.20;53.40;;;;;;5089330;28;20417;-77
2022/07/23 13:09:21;;;;;;;0.40;0.20;;;22.20;53.40;;;;;;5150827;27;20354;-76
2022/07/23 13:11:49;;;;;;;0.43;0.10;;;22.30;53.40;;;;;;5129020;28;20055;-76
2022/07/23 13:14:16;;;;;;;0.35;0.10;;;22.30;53.50;;;;;;5128896;28;20043;-76
2022/07/23 13:16:42;;;;;;;0.30;0.20;;;22.30;53.50;;;;;;5130160;27;20072;-76
2022/07/23 13:19:08;;;;;;;0.28;0.10;;;22.30;53.50;;;;;;5128827;28;20072;-76
2022/07/23 13:21:33;;;;;;;0.52;0.10;;;22.30;53.50;;;;;;5128737;28;20039;-76
2022/07/23 13:23:59;;;;;;;0.30;0.10;;;22.30;53.50;;;;;;5128879;28;20048;-76
2022/07/23 13:26:26;;;;;;;0.80;0.20;;;22.30;53.50;;;;;;5128760;28;20035;-76
2022/07/23 13:28:52;;;;;;;0.40;0.20;;;22.30;53.50;;;;;;5128566;28;20043;-76
2022/07/23 13:31:19;;;;;;;0.30;0.10;;;22.30;53.50;;;;;;5128884;28;20078;-76
2022/07/23 13:33:44;;;;;;;0.30;0.17;;;22.30;53.60;;;;;;5129832;27;20063;-77
2022/07/23 13:36:10;;;;;;;1.27;0.15;;;22.30;53.60;;;;;;5128768;28;20078;-77
2022/07/23 13:38:36;;;;;;;0.50;0.20;;;22.30;53.60;;;;;;5128517;28;20035;-77
2022/07/23 13:41:03;;;;;;;0.38;0.20;;;22.30;53.60;;;;;;5128598;28;20047;-76
2022/07/23 13:43:29;;;;;;;1.17;0.10;;;22.30;53.70;;;;;;5129945;27;20036;-75
2022/07/23 13:45:55;;;;;;;0.52;0.10;;;22.30;53.80;;;;;;5128283;28;20494;-76
2022/07/23 13:48:21;;;;;;;0.63;0.10;;;22.30;53.70;;;;;;5128266;28;20043;-75
2022/07/23 13:50:48;;;;;;;0.50;0.10;;;22.30;53.80;;;;;;5128192;28;20080;-76
2022/07/23 13:53:19;;;;;;;1.35;0.35;;;22.30;53.70;;;;;;5128212;28;20277;-76
2022/07/23 13:55:45;;;;;;;0.85;0.20;;;22.30;53.80;;;;;;5128323;28;20473;-76
2022/07/23 13:58:11;;;;;;;0.70;0.10;;;22.30;53.80;;;;;;5129379;28;20048;-76
2022/07/23 14:00:39;;;;;;;0.30;0.10;;;22.30;53.80;;;;;;5129333;28;20047;-76
2022/07/23 14:03:05;;;;;;;0.50;0.32;;;22.30;53.80;;;;;;5129640;27;20039;-79